Time;durP1;ratioP1;P1;durP2;ratioP2;P2;SDS_P1;SDS_P2;PMS_P1;PMS_P2;Temp;Humidity;BMP_temperature;BMP_pressure;BME280_temperature;BME280_humidity;BME280_pressure;Samples;Min_cycle;Max_cycle;Signal;HPM_P1;HPM_P2
2024/01/02 00:01:12;;;;;;;;;;;15.10;82.10;;;;;;5079226;28;19908;-74
2024/01/02 00:03:38;;;;;;;;;;;15.10;81.60;;;;;;5078072;28;20283;-73
2024/01/02 00:06:04;;;;;;;;;;;15.20;82.00;;;;;;5079192;28;19991;-73
2024/01/02 00:08:30;;;;;;;;;;;15.20;81.30;;;;;;5079188;28;19908;-73
2024/01/02 00:10:56;;;;;;;;;;;15.10;82.10;;;;;;5078903;28;20271;-73
2024/01/02 00:13:22;;;;;;;;;;;15.10;81.90;;;;;;5079019;28;19909;-73
2024/01/02 00:15:48;;;;;;;;;;;15.10;81.80;;;;;;5079258;28;19912;-73
2024/01/02 00:18:14;;;;;;;;;;;15.20;82.20;;;;;;5078993;28;19917;-73
2024/01/02 00:20:40;;;;;;;;;;;15.20;82.20;;;;;;5079115;28;19909;-74
2024/01/02 00:23:06;;;;;;;;;;;15.10;81.80;;;;;;5079051;28;20281;-73
2024/01/02 00:25:32;;;;;;;;;;;15.10;82.10;;;;;;5078945;28;19915;-73
2024/01/02 00:27:58;;;;;;;;;;;15.20;82.10;;;;;;5078773;28;19919;-74
2024/01/02 00:30:31;;;;;;;;;;;15.20;81.90;;;;;;5079035;28;19909;-73
2024/01/02 00:32:57;;;;;;;;;;;15.10;76.40;;;;;;5079018;28;20011;-73
2024/01/02 00:35:23;;;;;;;;;;;15.20;82.10;;;;;;5078909;28;19908;-74
2024/01/02 00:37:49;;;;;;;;;;;15.20;82.00;;;;;;5078933;28;20287;-74
2024/01/02 00:40:15;;;;;;;;;;;15.20;82.10;;;;;;5078776;28;19991;-74
2024/01/02 00:42:41;;;;;;;;;;;15.20;82.10;;;;;;5078673;28;19909;-74
2024/01/02 00:45:07;;;;;;;;;;;15.10;82.20;;;;;;5078662;28;20011;-74
2024/01/02 00:47:33;;;;;;;;;;;15.10;81.10;;;;;;5078715;28;19915;-74
2024/01/02 00:49:59;;;;;;;;;;;15.10;81.90;;;;;;5078806;28;19909;-74
2024/01/02 00:52:25;;;;;;;;;;;15.30;82.40;;;;;;5078761;28;19989;-74
2024/01/02 00:54:52;;;;;;;;;;;15.20;82.00;;;;;;5078396;28;19909;-74
2024/01/02 00:57:18;;;;;;;;;;;15.10;82.00;;;;;;5076259;28;19920;-74
2024/01/02 00:59:44;;;;;;;;;;;15.20;82.00;;;;;;5075751;28;19916;-73
2024/01/02 01:02:10;;;;;;;;;;;15.10;81.80;;;;;;5075316;28;20278;-74
2024/01/02 01:04:39;;;;;;;;;;;15.20;82.20;;;;;;5075065;28;19913;-73
2024/01/02 01:07:05;;;;;;;;;;;15.20;82.40;;;;;;5075411;28;20318;-74
2024/01/02 01:09:31;;;;;;;;;;;15.30;82.20;;;;;;5075000;28;19964;-73
2024/01/02 01:11:57;;;;;;;;;;;15.20;82.30;;;;;;5075127;28;19912;-74
2024/01/02 01:14:23;;;;;;;;;;;15.10;82.50;;;;;;5075196;28;19961;-74
2024/01/02 01:16:49;;;;;;;;;;;15.10;82.50;;;;;;5075106;28;19923;-74
2024/01/02 01:19:15;;;;;;;;;;;15.10;82.40;;;;;;5074860;28;20501;-73
2024/01/02 01:21:41;;;;;;;;;;;15.20;82.70;;;;;;5075026;28;19909;-74
2024/01/02 01:24:07;;;;;;;;;;;15.10;82.60;;;;;;5074789;28;20330;-74
2024/01/02 01:26:33;;;;;;;;;;;15.10;82.50;;;;;;5075017;28;19991;-73
2024/01/02 01:28:58;;;;;;;;;;;15.20;82.50;;;;;;5075183;28;20299;-74
2024/01/02 01:31:24;;;;;;;;;;;15.10;82.80;;;;;;5074680;28;19908;-74
2024/01/02 01:33:50;;;;;;;;;;;15.30;82.70;;;;;;5074592;28;19908;-74
2024/01/02 01:36:15;;;;;;;;;;;15.10;82.60;;;;;;5074583;28;19909;-73
2024/01/02 01:38:40;;;;;;;;;;;15.20;82.60;;;;;;5074439;28;20444;-73
2024/01/02 01:41:06;;;;;;;;;;;15.20;82.70;;;;;;5074685;28;20003;-73
2024/01/02 01:43:32;;;;;;;;;;;15.10;82.70;;;;;;5074377;28;20367;-73
2024/01/02 01:45:57;;;;;;;;;;;16.50;83.20;;;;;;5074440;28;19966;-74
2024/01/02 01:48:23;;;;;;;;;;;15.20;82.50;;;;;;5074376;28;19909;-73
2024/01/02 01:50:48;;;;;;;;;;;15.10;82.70;;;;;;5074216;28;19977;-73
2024/01/02 01:53:14;;;;;;;;;;;15.10;82.70;;;;;;5074557;28;20363;-73
2024/01/02 01:55:41;;;;;;;;;;;15.20;82.60;;;;;;5074441;28;19909;-73
2024/01/02 01:58:07;;;;;;;;;;;15.20;82.40;;;;;;5074911;28;19917;-74
2024/01/02 02:00:33;;;;;;;;;;;14.90;82.30;;;;;;5074000;28;19967;-74
2024/01/02 02:02:59;;;;;;;;;;;15.10;82.00;;;;;;5074054;28;19920;-74
2024/01/02 02:05:26;;;;;;;;;;;15.10;82.60;;;;;;5074066;28;20037;-74
2024/01/02 02:07:53;;;;;;;;;;;15.40;82.70;;;;;;5073814;28;19948;-74
2024/01/02 02:10:20;;;;;;;;;;;15.20;82.90;;;;;;5074023;28;20185;-74
2024/01/02 02:12:46;;;;;;;;;;;15.10;83.20;;;;;;5074421;28;19915;-74
2024/01/02 02:15:13;;;;;;;;;;;15.20;82.50;;;;;;5074095;28;19908;-74
2024/01/02 02:17:39;;;;;;;;;;;15.20;82.50;;;;;;5073655;28;19920;-74
2024/01/02 02:20:05;;;;;;;;;;;14.90;82.20;;;;;;5073874;28;19916;-74
2024/01/02 02:22:33;;;;;;;;;;;15.20;81.00;;;;;;5073959;28;19908;-74
2024/01/02 02:24:58;;;;;;;;;;;15.00;81.90;;;;;;5074121;28;20375;-73
2024/01/02 02:27:26;;;;;;;;;;;15.10;82.60;;;;;;5073685;28;19915;-74
2024/01/02 02:29:52;;;;;;;;;;;15.20;82.80;;;;;;5073711;28;19908;-73
2024/01/02 02:32:18;;;;;;;;;;;15.10;82.60;;;;;;5073526;28;19955;-74
2024/01/02 02:34:43;;;;;;;;;;;15.10;82.70;;;;;;5073421;28;19909;-73
2024/01/02 02:37:09;;;;;;;;;;;15.20;82.60;;;;;;5073334;28;19923;-74
2024/01/02 02:39:35;;;;;;;;;;;15.10;82.70;;;;;;5073646;28;19912;-74
2024/01/02 02:42:00;;;;;;;;;;;15.30;82.70;;;;;;5073199;28;19909;-74
2024/01/02 02:44:26;;;;;;;;;;;15.20;82.50;;;;;;5073250;28;19908;-74
2024/01/02 02:46:51;;;;;;;;;;;15.10;82.60;;;;;;5073476;28;20267;-74
2024/01/02 02:49:17;;;;;;;;;;;15.10;82.80;;;;;;5073122;28;19913;-73
2024/01/02 02:51:42;;;;;;;;;;;15.10;82.60;;;;;;5073138;28;19909;-73
2024/01/02 02:54:08;;;;;;;;;;;15.10;82.60;;;;;;5073555;28;19908;-74
2024/01/02 02:56:33;;;;;;;;;;;15.30;82.90;;;;;;5073028;28;19923;-74
2024/01/02 02:58:59;;;;;;;;;;;15.00;82.60;;;;;;5073160;28;19931;-74
2024/01/02 03:01:25;;;;;;;;;;;15.10;82.10;;;;;;5055485;28;19919;-74
2024/01/02 03:03:51;;;;;;;;;;;15.10;82.30;;;;;;5055064;28;19978;-74
2024/01/02 03:06:17;;;;;;;;;;;15.10;82.80;;;;;;5055413;28;20294;-74
2024/01/02 03:08:43;;;;;;;;;;;15.10;82.60;;;;;;5055132;28;19913;-74
2024/01/02 03:11:09;;;;;;;;;;;15.10;82.30;;;;;;5073151;28;20423;-74
2024/01/02 03:13:35;;;;;;;;;;;15.10;83.00;;;;;;5055024;28;19970;-74
2024/01/02 03:16:01;;;;;;;;;;;15.10;82.70;;;;;;5054977;28;19995;-74
2024/01/02 03:18:27;;;;;;;;;;;15.10;82.60;;;;;;5055058;28;19927;-74
2024/01/02 03:20:53;;;;;;;;;;;15.10;82.70;;;;;;5054300;28;19920;-74
2024/01/02 03:23:19;;;;;;;;;;;15.10;82.40;;;;;;5055545;28;19913;-74
2024/01/02 03:25:45;;;;;;;;;;;15.00;82.70;;;;;;5054832;28;20003;-74
2024/01/02 03:28:11;;;;;;;;;;;15.10;82.80;;;;;;5054716;28;19912;-74
2024/01/02 03:30:40;;;;;;;;;;;15.10;83.00;;;;;;5054745;28;19916;-74
2024/01/02 03:33:06;;;;;;;;;;;15.00;83.00;;;;;;5055471;28;19912;-73
2024/01/02 03:35:32;;;;;;;;;;;14.70;82.50;;;;;;5055122;28;20290;-73
2024/01/02 03:37:58;;;;;;;;;;;15.20;82.90;;;;;;5054824;28;19924;-73
2024/01/02 03:40:24;;;;;;;;;;;15.20;83.20;;;;;;5054884;28;19919;-73
2024/01/02 03:42:50;;;;;;;;;;;15.10;83.10;;;;;;5054876;28;19913;-73
2024/01/02 03:45:16;;;;;;;;;;;15.10;83.10;;;;;;5054798;28;20295;-73
2024/01/02 03:47:42;;;;;;;;;;;15.00;83.20;;;;;;5054957;28;19919;-73
2024/01/02 03:50:08;;;;;;;;;;;15.00;83.10;;;;;;5054945;28;20007;-73
2024/01/02 03:52:34;;;;;;;;;;;15.20;82.90;;;;;;5054542;28;19920;-73
2024/01/02 03:55:00;;;;;;;;;;;15.10;83.10;;;;;;5054396;28;19913;-72
2024/01/02 03:57:27;;;;;;;;;;;15.10;83.40;;;;;;5054628;28;19925;-73
2024/01/02 03:59:53;;;;;;;;;;;15.10;83.30;;;;;;5072599;28;19927;-73
2024/01/02 04:02:19;;;;;;;;;;;15.00;82.70;;;;;;5054406;28;19912;-73
2024/01/02 04:04:45;;;;;;;;;;;15.00;83.10;;;;;;5054413;28;19920;-73
2024/01/02 04:07:11;;;;;;;;;;;15.10;83.40;;;;;;5054313;28;19912;-73
2024/01/02 04:09:37;;;;;;;;;;;15.10;83.20;;;;;;5072114;28;19924;-73
2024/01/02 04:12:03;;;;;;;;;;;15.00;83.00;;;;;;5072156;28;19950;-73
2024/01/02 04:14:29;;;;;;;;;;;15.20;82.70;;;;;;5054479;28;19934;-73
2024/01/02 04:16:55;;;;;;;;;;;15.10;83.40;;;;;;5072082;28;20367;-72
2024/01/02 04:19:21;;;;;;;;;;;15.20;83.40;;;;;;5072509;28;19908;-74
2024/01/02 04:21:47;;;;;;;;;;;15.00;83.20;;;;;;5072113;28;20436;-73
2024/01/02 04:24:14;;;;;;;;;;;15.10;83.80;;;;;;5072030;28;19916;-73
2024/01/02 04:26:39;;;;;;;;;;;15.00;83.80;;;;;;5072089;28;19908;-73
2024/01/02 04:29:05;;;;;;;;;;;15.10;83.90;;;;;;5072300;28;19915;-73
2024/01/02 04:31:30;;;;;;;;;;;15.20;83.80;;;;;;5074307;28;19908;-73
2024/01/02 04:33:56;;;;;;;;;;;15.10;84.20;;;;;;5075815;28;20394;-72
2024/01/02 04:36:24;;;;;;;;;;;15.10;84.80;;;;;;5075555;28;19912;-73
2024/01/02 04:38:49;;;;;;;;;;;15.10;84.10;;;;;;5075877;28;19912;-73
2024/01/02 04:41:15;;;;;;;;;;;15.20;84.20;;;;;;5075604;28;19930;-73
2024/01/02 04:43:40;;;;;;;;;;;15.20;85.20;;;;;;5075471;28;19909;-73
2024/01/02 04:46:06;;;;;;;;;;;15.10;84.30;;;;;;5075501;28;19953;-72
2024/01/02 04:48:31;;;;;;;;;;;15.20;84.60;;;;;;5075932;28;19908;-73
2024/01/02 04:50:58;;;;;;;;;;;15.20;84.50;;;;;;5075499;28;19978;-73
2024/01/02 04:53:24;;;;;;;;;;;15.30;84.70;;;;;;5075570;28;19915;-73
2024/01/02 04:55:49;;;;;;;;;;;15.20;84.80;;;;;;5075412;28;19908;-73
2024/01/02 04:58:15;;;;;;;;;;;15.30;84.60;;;;;;5075364;28;19927;-73
2024/01/02 05:00:40;;;;;;;;;;;15.30;84.50;;;;;;5075616;28;19909;-72
2024/01/02 05:03:06;;;;;;;;;;;15.30;84.20;;;;;;5075005;28;19974;-72
2024/01/02 05:05:31;;;;;;;;;;;15.30;84.70;;;;;;5075129;28;20435;-72
2024/01/02 05:07:57;;;;;;;;;;;15.30;84.70;;;;;;5075190;28;19908;-72
2024/01/02 05:10:23;;;;;;;;;;;15.30;85.00;;;;;;5075297;28;19909;-72
2024/01/02 05:12:50;;;;;;;;;;;15.30;84.80;;;;;;5075018;28;20371;-72
2024/01/02 05:15:16;;;;;;;;;;;15.30;84.80;;;;;;5075217;28;19912;-73
2024/01/02 05:17:42;;;;;;;;;;;15.30;85.20;;;;;;5075533;28;20012;-75
2024/01/02 05:20:08;;;;;;;;;;;15.30;85.00;;;;;;5075197;28;19951;-75
2024/01/02 05:22:35;;;;;;;;;;;15.30;84.10;;;;;;5075181;28;19909;-73
2024/01/02 05:25:01;;;;;;;;;;;15.30;85.00;;;;;;5074745;28;19908;-75
2024/01/02 05:27:26;;;;;;;;;;;15.40;84.90;;;;;;5075134;28;19909;-74
2024/01/02 05:29:52;;;;;;;;;;;15.30;85.00;;;;;;5074967;28;19909;-73
2024/01/02 05:32:18;;;;;;;;;;;15.40;85.10;;;;;;5075023;28;20267;-73
2024/01/02 05:34:44;;;;;;;;;;;15.40;85.30;;;;;;5074508;28;19909;-73
2024/01/02 05:37:10;;;;;;;;;;;15.40;85.30;;;;;;5075064;28;19917;-73
2024/01/02 05:39:36;;;;;;;;;;;15.40;84.90;;;;;;5074541;28;19961;-73
2024/01/02 05:42:01;;;;;;;;;;;15.40;85.00;;;;;;5074014;28;20054;-75
2024/01/02 05:44:27;;;;;;;;;;;15.30;85.30;;;;;;5074654;28;20193;-72
2024/01/02 05:46:53;;;;;;;;;;;15.40;85.30;;;;;;5074371;28;19954;-73
2024/01/02 05:49:19;;;;;;;;;;;15.70;85.30;;;;;;5074289;28;19909;-73
2024/01/02 05:51:45;;;;;;;;;;;15.40;85.20;;;;;;5074266;28;19908;-73
2024/01/02 05:54:11;;;;;;;;;;;15.40;85.30;;;;;;5074505;28;19908;-73
2024/01/02 05:56:37;;;;;;;;;;;15.40;85.20;;;;;;5074353;28;19952;-73
2024/01/02 05:59:03;;;;;;;;;;;15.50;85.30;;;;;;5074185;28;19978;-73
2024/01/02 06:01:28;;;;;;;;;;;15.50;85.40;;;;;;5074354;28;20344;-73
2024/01/02 06:03:54;;;;;;;;;;;15.50;85.80;;;;;;5073835;28;19921;-72
2024/01/02 06:06:20;;;;;;;;;;;15.50;85.80;;;;;;5074328;28;19909;-72
2024/01/02 06:08:46;;;;;;;;;;;15.50;85.70;;;;;;5074157;28;19909;-72
2024/01/02 06:11:14;;;;;;;;;;;15.60;86.10;;;;;;5073204;28;20411;-72
2024/01/02 06:13:40;;;;;;;;;;;15.60;86.10;;;;;;5074199;28;19915;-73
2024/01/02 06:16:10;;;;;;;;;;;15.50;86.10;;;;;;5073811;28;19909;-73
2024/01/02 06:18:36;;;;;;;;;;;15.60;86.20;;;;;;5073593;28;19952;-73
2024/01/02 06:21:04;;;;;;;;;;;15.60;86.60;;;;;;5074252;28;19995;-73
2024/01/02 06:23:34;;;;;;;;;;;15.50;85.80;;;;;;5073924;28;20329;-73
2024/01/02 06:26:00;;;;;;;;;;;15.50;80.90;;;;;;5073888;28;19970;-72
2024/01/02 06:28:26;;;;;;;;;;;15.60;87.30;;;;;;5073582;28;19909;-73
2024/01/02 06:30:51;;;;;;;;;;;15.60;86.50;;;;;;5073358;28;19919;-73
2024/01/02 06:33:17;;;;;;;;;;;15.50;86.50;;;;;;5073717;28;19919;-73
2024/01/02 06:35:43;;;;;;;;;;;15.60;86.60;;;;;;5073358;28;19908;-73
2024/01/02 06:38:09;;;;;;;;;;;15.60;86.50;;;;;;5073513;28;19949;-73
2024/01/02 06:40:36;;;;;;;;;;;15.60;86.90;;;;;;5073584;28;19957;-72
2024/01/02 06:43:02;;;;;;;;;;;15.60;87.30;;;;;;5074004;28;19908;-76
2024/01/02 06:45:28;;;;;;;;;;;15.60;86.40;;;;;;5073144;28;20272;-74
2024/01/02 06:47:55;;;;;;;;;;;15.60;86.90;;;;;;5073401;28;19940;-73
2024/01/02 06:50:21;;;;;;;;;;;15.60;87.10;;;;;;5073471;28;19916;-71
2024/01/02 06:52:47;;;;;;;;;;;15.70;87.20;;;;;;5073309;28;19992;-73
2024/01/02 06:55:13;;;;;;;;;;;15.60;87.00;;;;;;5073350;28;20333;-72
2024/01/02 06:57:39;;;;;;;;;;;15.70;86.60;;;;;;5072923;28;19927;-73
2024/01/02 07:00:06;;;;;;;;;;;15.60;87.00;;;;;;5072795;28;19908;-73
2024/01/02 07:02:33;;;;;;;;;;;15.90;86.80;;;;;;5073131;28;19912;-73
2024/01/02 07:04:59;;;;;;;;;;;15.70;87.00;;;;;;5072868;28;20370;-72
2024/01/02 07:07:25;;;;;;;;;;;15.70;87.20;;;;;;5073149;28;19909;-72
2024/01/02 07:09:51;;;;;;;;;;;15.70;87.00;;;;;;5073280;28;20351;-72
2024/01/02 07:12:17;;;;;;;;;;;15.80;87.10;;;;;;5072843;28;19934;-73
2024/01/02 07:14:43;;;;;;;;;;;15.70;86.20;;;;;;5072788;28;20445;-73
2024/01/02 07:17:09;;;;;;;;;;;15.80;86.90;;;;;;5072858;28;19923;-73
2024/01/02 07:19:34;;;;;;;;;;;15.80;86.80;;;;;;5072777;28;19999;-72
2024/01/02 07:22:00;;;;;;;;;;;15.70;87.20;;;;;;5072714;28;19909;-73
2024/01/02 07:24:26;;;;;;;;;;;15.80;87.00;;;;;;5072689;28;19909;-72
2024/01/02 07:26:51;;;;;;;;;;;15.80;86.80;;;;;;5072925;28;19915;-73
2024/01/02 07:29:17;;;;;;;;;;;15.80;87.20;;;;;;5072595;28;19919;-73
2024/01/02 07:31:42;;;;;;;;;;;15.70;87.00;;;;;;5072604;28;19909;-73
2024/01/02 07:34:12;;;;;;;;;;;15.80;87.20;;;;;;5072811;28;20023;-72
2024/01/02 07:36:38;;;;;;;;;;;15.80;87.00;;;;;;5072756;28;19928;-73
2024/01/02 07:39:05;;;;;;;;;;;15.80;87.20;;;;;;5073102;28;20378;-73
2024/01/02 07:41:30;;;;;;;;;;;15.80;87.20;;;;;;5072319;28;19912;-73
2024/01/02 07:43:57;;;;;;;;;;;15.80;87.10;;;;;;5072560;28;19908;-73
2024/01/02 07:46:23;;;;;;;;;;;15.80;87.40;;;;;;5072539;28;20337;-74
2024/01/02 07:48:49;;;;;;;;;;;15.80;87.40;;;;;;5072637;28;19916;-73
2024/01/02 07:51:15;;;;;;;;;;;15.80;87.40;;;;;;5072405;28;19909;-73
2024/01/02 07:53:41;;;;;;;;;;;15.80;87.50;;;;;;5072511;28;20329;-74
2024/01/02 07:56:07;;;;;;;;;;;15.90;87.20;;;;;;5072073;28;19909;-74
2024/01/02 07:58:33;;;;;;;;;;;15.80;87.10;;;;;;5072318;28;19917;-72
2024/01/02 08:00:59;;;;;;;;;;;15.90;87.40;;;;;;5072379;28;19955;-72
2024/01/02 08:03:25;;;;;;;;;;;15.80;86.80;;;;;;5071872;28;19940;-73
2024/01/02 08:05:51;;;;;;;;;;;15.90;87.00;;;;;;5073179;28;19930;-75
2024/01/02 08:08:17;;;;;;;;;;;15.80;87.20;;;;;;5076714;28;19909;-74
2024/01/02 08:10:42;;;;;;;;;;;16.00;87.20;;;;;;5075934;28;19916;-80
2024/01/02 08:13:08;;;;;;;;;;;15.90;87.10;;;;;;5083462;28;19962;-74
2024/01/02 08:15:34;;;;;;;;;;;15.90;86.80;;;;;;5076316;28;20002;-77
2024/01/02 08:18:00;;;;;;;;;;;15.90;87.20;;;;;;5076298;28;19923;-75
2024/01/02 08:20:26;;;;;;;;;;;15.90;87.10;;;;;;5076277;28;20271;-77
2024/01/02 08:22:52;;;;;;;;;;;16.20;87.40;;;;;;5076247;28;19908;-76
2024/01/02 08:25:23;;;;;;;;;;;16.00;87.10;;;;;;5076052;28;20413;-76
2024/01/02 08:27:50;;;;;;;;;;;16.00;87.10;;;;;;5076183;28;19909;-75
2024/01/02 08:30:16;;;;;;;;;;;15.90;87.10;;;;;;5075669;28;19908;-75
2024/01/02 08:32:42;;;;;;;;;;;15.90;86.90;;;;;;5076067;28;19908;-76
2024/01/02 08:35:07;;;;;;;;;;;16.00;87.00;;;;;;5076557;28;20348;-74
2024/01/02 08:37:36;;;;;;;;;;;16.10;87.00;;;;;;5075548;28;19917;-75
2024/01/02 08:40:03;;;;;;;;;;;15.90;86.70;;;;;;5076017;28;20054;-75
2024/01/02 08:42:29;;;;;;;;;;;15.90;86.60;;;;;;5075966;28;20294;-73
2024/01/02 08:44:56;;;;;;;;;;;16.00;87.00;;;;;;5075619;28;19909;-74
2024/01/02 08:47:22;;;;;;;;;;;16.00;86.40;;;;;;5075905;28;19932;-74
2024/01/02 08:49:48;;;;;;;;;;;16.00;86.80;;;;;;5075582;28;19912;-74
2024/01/02 08:52:14;;;;;;;;;;;16.00;87.10;;;;;;5075678;28;19915;-76
2024/01/02 08:54:40;;;;;;;;;;;16.00;86.60;;;;;;5075392;28;19909;-76
2024/01/02 08:57:06;;;;;;;;;;;15.90;86.70;;;;;;5075593;28;19960;-75
2024/01/02 08:59:32;;;;;;;;;;;16.10;86.90;;;;;;5075258;28;19912;-75
2024/01/02 09:01:58;;;;;;;;;;;16.00;86.40;;;;;;5075465;28;19913;-75
2024/01/02 09:04:24;;;;;;;;;;;16.00;86.80;;;;;;5075761;28;19927;-76
2024/01/02 09:06:51;;;;;;;;;;;15.70;86.80;;;;;;5075300;28;19916;-75
2024/01/02 09:09:17;;;;;;;;;;;16.00;86.80;;;;;;5075208;28;20378;-76
2024/01/02 09:11:43;;;;;;;;;;;16.10;86.80;;;;;;5075123;28;19962;-74
2024/01/02 09:14:08;;;;;;;;;;;16.00;86.50;;;;;;5075271;28;20004;-76
2024/01/02 09:16:36;;;;;;;;;;;16.00;86.70;;;;;;5074964;28;20267;-74
2024/01/02 09:19:02;;;;;;;;;;;16.10;87.10;;;;;;5074234;28;19919;-76
2024/01/02 09:21:27;;;;;;;;;;;16.00;86.50;;;;;;5076097;28;19984;-83
2024/01/02 09:23:53;;;;;;;;;;;16.00;86.70;;;;;;5077468;28;20350;-78
2024/01/02 09:26:19;;;;;;;;;;;16.00;86.90;;;;;;5074912;28;19909;-77
2024/01/02 09:28:45;;;;;;;;;;;16.00;86.80;;;;;;5075151;28;20279;-78
2024/01/02 09:31:12;;;;;;;;;;;16.10;86.80;;;;;;5075271;28;19915;-77
2024/01/02 09:33:39;;;;;;;;;;;16.00;86.80;;;;;;5074833;28;19912;-72
2024/01/02 09:36:07;;;;;;;;;;;16.00;86.80;;;;;;5074979;28;19915;-72
2024/01/02 09:38:36;;;;;;;;;;;16.10;86.60;;;;;;5074670;28;19921;-71
2024/01/02 09:41:08;;;;;;;;;;;16.10;87.20;;;;;;5074808;28;20007;-73
2024/01/02 09:43:46;;;;;;;;;;;16.10;86.50;;;;;;5074710;28;19908;-73
2024/01/02 09:46:21;;;;;;;;;;;16.10;82.20;;;;;;5074749;28;19909;-73
2024/01/02 09:48:47;;;;;;;;;;;16.10;81.70;;;;;;5074668;28;20306;-73
2024/01/02 09:51:34;;;;;;;;;;;16.30;87.10;;;;;;5074526;28;19915;-73
2024/01/02 09:54:11;;;;;;;;;;;16.10;87.30;;;;;;5024085;28;19915;-77
2024/01/02 09:56:40;;;;;;;;;;;16.10;82.00;;;;;;5074238;28;20489;-77
2024/01/02 09:59:09;;;;;;;;;;;16.10;81.70;;;;;;5074545;28;19912;-77
2024/01/02 10:01:41;;;;;;;;;;;16.20;86.70;;;;;;5074117;28;19916;-77
2024/01/02 10:04:30;;;;;;;;;;;16.10;81.90;;;;;;5074021;28;20383;-76
2024/01/02 10:07:11;;;;;;;;;;;16.10;81.80;;;;;;5074725;28;19908;-76
2024/01/02 10:09:45;;;;;;;;;;;16.20;81.90;;;;;;5074320;28;19912;-76
2024/01/02 10:12:11;;;;;;;;;;;16.10;81.80;;;;;;5074367;28;19920;-76
2024/01/02 10:15:02;;;;;;;;;;;16.20;86.70;;;;;;5073884;28;20035;-77
2024/01/02 10:17:49;;;;;;;;;;;16.20;81.90;;;;;;5073798;28;19956;-76
2024/01/02 10:20:28;;;;;;;;;;;16.20;81.70;;;;;;5073795;28;19970;-76
2024/01/02 10:22:54;;;;;;;;;;;16.30;81.90;;;;;;5073808;28;19953;-77
2024/01/02 10:25:20;;;;;;;;;;;16.10;87.10;;;;;;5073756;28;20002;-78
2024/01/02 10:27:46;;;;;;;;;;;16.10;87.30;;;;;;5074397;28;19973;-76
2024/01/02 10:30:16;;;;;;;;;;;16.20;86.90;;;;;;5073521;28;19959;-76
2024/01/02 10:32:54;;;;;;;;;;;16.10;86.90;;;;;;5055984;28;20000;-76
2024/01/02 10:35:26;;;;;;;;;;;16.10;86.90;;;;;;5073804;28;19962;-76
2024/01/02 10:38:00;;;;;;;;;;;16.10;86.60;;;;;;5055464;28;20516;-74
2024/01/02 10:40:27;;;;;;;;;;;16.10;87.40;;;;;;5055895;28;19912;-74
2024/01/02 10:43:07;;;;;;;;;;;16.20;86.70;;;;;;5056127;28;19913;-73
2024/01/02 10:45:36;;;;;;;;;;;16.20;82.10;;;;;;5073735;28;20028;-74
2024/01/02 10:48:21;;;;;;;;;;;16.20;87.50;;;;;;5055942;28;20303;-74
2024/01/02 10:50:47;;;;;;;;;;;16.30;81.90;;;;;;5073210;28;19908;-74
2024/01/02 10:53:25;;;;;;;;;;;16.10;87.00;;;;;;5073483;28;19942;-73
2024/01/02 10:55:57;;;;;;;;;;;16.20;82.00;;;;;;5073099;28;20042;-73
2024/01/02 10:58:23;;;;;;;;;;;16.00;87.20;;;;;;5073328;28;19916;-75
2024/01/02 11:00:49;;;;;;;;;;;16.20;87.20;;;;;;5072981;28;20441;-75
2024/01/02 11:03:16;;;;;;;;;;;16.20;86.90;;;;;;5072813;28;20050;-75
2024/01/02 11:05:43;;;;;;;;;;;16.20;87.60;;;;;;5074290;28;19915;-73
2024/01/02 11:08:29;;;;;;;;;;;16.20;87.50;;;;;;5072850;28;19912;-74
2024/01/02 11:10:59;;;;;;;;;;;16.30;86.90;;;;;;5072854;28;19943;-74
2024/01/02 11:13:26;;;;;;;;;;;16.10;87.60;;;;;;5072820;28;19908;-76
2024/01/02 11:16:02;;;;;;;;;;;16.20;87.60;;;;;;5073109;28;19908;-79
2024/01/02 11:18:29;;;;;;;;;;;16.20;82.30;;;;;;5072649;28;19924;-79
2024/01/02 11:21:00;;;;;;;;;;;16.20;87.00;;;;;;5072925;28;20321;-79
2024/01/02 11:23:27;;;;;;;;;;;16.30;87.50;;;;;;5072972;28;19908;-81
2024/01/02 11:26:04;;;;;;;;;;;16.20;87.70;;;;;;5072633;28;20434;-83
2024/01/02 11:28:31;;;;;;;;;;;16.20;82.10;;;;;;5072748;28;19915;-78
2024/01/02 11:30:57;;;;;;;;;;;16.20;87.70;;;;;;5072765;28;19999;-80
2024/01/02 11:33:23;;;;;;;;;;;16.20;86.90;;;;;;5072576;28;19944;-76
2024/01/02 11:36:07;;;;;;;;;;;16.20;87.00;;;;;;5072954;28;19954;-73
2024/01/02 11:38:42;;;;;;;;;;;16.30;82.30;;;;;;5073063;28;20329;-74
2024/01/02 11:41:16;;;;;;;;;;;16.40;87.60;;;;;;5071967;28;19952;-73
2024/01/02 11:43:44;;;;;;;;;;;16.20;87.80;;;;;;5072942;28;20334;-73
2024/01/02 11:46:11;;;;;;;;;;;16.30;82.20;;;;;;5072631;28;19908;-72
2024/01/02 11:48:43;;;;;;;;;;;16.20;87.40;;;;;;5072464;28;19912;-75
2024/01/02 11:51:23;;;;;;;;;;;16.30;82.30;;;;;;5072672;28;19931;-74
2024/01/02 11:53:49;;;;;;;;;;;16.30;82.20;;;;;;5072463;28;20378;-80
2024/01/02 11:56:16;;;;;;;;;;;16.30;87.20;;;;;;5072666;28;19930;-77
2024/01/02 11:58:48;;;;;;;;;;;16.30;87.50;;;;;;5072646;28;20027;-78
2024/01/02 12:01:32;;;;;;;;;;;16.40;88.10;;;;;;5072270;28;19908;-75
2024/01/02 12:04:18;;;;;;;;;;;16.20;86.90;;;;;;5071998;28;19924;-81
2024/01/02 12:06:47;;;;;;;;;;;16.30;82.10;;;;;;5072371;28;20375;-79
2024/01/02 12:09:15;;;;;;;;;;;16.20;82.10;;;;;;5072213;28;20007;-75
2024/01/02 12:11:46;;;;;;;;;;;16.30;87.70;;;;;;5072544;28;19909;-74
2024/01/02 12:14:40;;;;;;;;;;;16.30;87.00;;;;;;5072396;28;20283;-76
2024/01/02 12:17:07;;;;;;;;;;;16.40;82.10;;;;;;5072427;28;20282;-76
2024/01/02 12:19:36;;;;;;;;;;;16.30;87.50;;;;;;5072389;28;19908;-76
2024/01/02 12:22:05;;;;;;;;;;;16.30;87.40;;;;;;5072313;28;19951;-76
2024/01/02 12:24:31;;;;;;;;;;;16.30;87.30;;;;;;5071967;28;19908;-76
2024/01/02 12:26:58;;;;;;;;;;;16.20;87.60;;;;;;5072330;28;19996;-76
2024/01/02 12:29:44;;;;;;;;;;;16.30;87.70;;;;;;5072388;28;20371;-76
2024/01/02 12:32:15;;;;;;;;;;;16.30;87.60;;;;;;5071709;28;19916;-76
2024/01/02 12:34:48;;;;;;;;;;;16.70;87.60;;;;;;5072503;28;20007;-76
2024/01/02 12:37:19;;;;;;;;;;;16.20;82.10;;;;;;5072410;28;20279;-76
2024/01/02 12:39:49;;;;;;;;;;;16.40;87.50;;;;;;5072252;28;20386;-76
2024/01/02 12:42:20;;;;;;;;;;;16.30;87.40;;;;;;5072190;28;19908;-76
2024/01/02 12:44:49;;;;;;;;;;;16.30;87.50;;;;;;5072249;28;19912;-76
2024/01/02 12:47:20;;;;;;;;;;;16.30;87.50;;;;;;5072159;28;20320;-76
2024/01/02 12:49:59;;;;;;;;;;;16.30;87.60;;;;;;5071893;28;19999;-76
2024/01/02 12:52:27;;;;;;;;;;;16.30;87.40;;;;;;5073515;28;19909;-76
2024/01/02 12:54:54;;;;;;;;;;;16.30;87.40;;;;;;5075740;28;19996;-76
2024/01/02 12:57:20;;;;;;;;;;;16.30;87.00;;;;;;5075735;28;19913;-77
2024/01/02 12:59:46;;;;;;;;;;;16.30;87.40;;;;;;5075275;28;19991;-78
2024/01/02 13:02:12;;;;;;;;;;;16.30;86.90;;;;;;5075045;28;19958;-76
2024/01/02 13:04:38;;;;;;;;;;;16.30;86.80;;;;;;5075201;28;19916;-81
2024/01/02 13:07:08;;;;;;;;;;;16.20;87.30;;;;;;5075510;28;20334;-75
2024/01/02 13:09:36;;;;;;;;;;;16.30;87.40;;;;;;5075443;28;19909;-76
2024/01/02 13:12:03;;;;;;;;;;;16.50;87.50;;;;;;5075141;28;19909;-79
2024/01/02 13:14:29;;;;;;;;;;;16.20;86.60;;;;;;5075279;28;19913;-74
2024/01/02 13:16:55;;;;;;;;;;;16.30;87.40;;;;;;5075244;28;19913;-74
2024/01/02 13:19:21;;;;;;;;;;;16.20;87.30;;;;;;5074933;28;19958;-72
2024/01/02 13:21:47;;;;;;;;;;;16.20;87.30;;;;;;5075216;28;19908;-74
2024/01/02 13:24:13;;;;;;;;;;;16.20;87.00;;;;;;5074882;28;19915;-72
2024/01/02 13:26:40;;;;;;;;;;;16.30;87.00;;;;;;5075210;28;19908;-75
2024/01/02 13:29:10;;;;;;;;;;;16.30;87.50;;;;;;5075175;28;19908;-74
2024/01/02 13:31:37;;;;;;;;;;;16.30;82.20;;;;;;5074715;28;19909;-75
2024/01/02 13:34:06;;;;;;;;;;;16.20;87.30;;;;;;5074714;28;19950;-75
2024/01/02 13:36:43;;;;;;;;;;;16.30;86.50;;;;;;5074857;28;19931;-75
2024/01/02 13:39:09;;;;;;;;;;;16.20;87.40;;;;;;5074733;28;20009;-73
2024/01/02 13:41:45;;;;;;;;;;;16.20;87.70;;;;;;5057013;28;19951;-77
2024/01/02 13:44:11;;;;;;;;;;;16.40;87.50;;;;;;5074861;28;19915;-74
2024/01/02 13:46:37;;;;;;;;;;;16.20;87.10;;;;;;5074519;28;19995;-75
2024/01/02 13:49:03;;;;;;;;;;;16.20;87.40;;;;;;5074421;28;19977;-72
2024/01/02 13:51:32;;;;;;;;;;;16.20;87.40;;;;;;5074601;28;19939;-73
2024/01/02 13:54:01;;;;;;;;;;;16.20;87.70;;;;;;5074309;28;20398;-72
2024/01/02 13:56:28;;;;;;;;;;;16.20;82.20;;;;;;5074214;28;20166;-74
2024/01/02 13:59:04;;;;;;;;;;;16.20;87.60;;;;;;5074488;28;19947;-71
2024/01/02 14:01:31;;;;;;;;;;;16.10;87.00;;;;;;5074278;28;19909;-73
2024/01/02 14:03:56;;;;;;;;;;;16.20;87.60;;;;;;5073272;28;19928;-74
2024/01/02 14:06:23;;;;;;;;;;;16.20;87.70;;;;;;5074077;28;20341;-75
2024/01/02 14:09:07;;;;;;;;;;;16.20;87.20;;;;;;5073923;28;19974;-76
2024/01/02 14:11:32;;;;;;;;;;;16.30;88.00;;;;;;5074017;28;19908;-74
2024/01/02 14:14:05;;;;;;;;;;;16.20;87.60;;;;;;5073878;28;20015;-74
2024/01/02 14:16:30;;;;;;;;;;;16.20;87.80;;;;;;5073863;28;20314;-71
2024/01/02 14:18:56;;;;;;;;;;;16.50;87.80;;;;;;5073772;28;19923;-73